sensor_id;sensor_type;location;lat;lon;timestamp;temperature;humidity
16182;DHT22;8197;51.664;7.114;2024-03-17T00:04:55;6.40;98.20
16182;DHT22;8197;51.664;7.114;2024-03-17T00:09:57;6.30;99.10
16182;DHT22;8197;51.664;7.114;2024-03-17T00:15:01;6.30;99.40
16182;DHT22;8197;51.664;7.114;2024-03-17T00:20:05;6.30;99.50
16182;DHT22;8197;51.664;7.114;2024-03-17T00:25:19;6.30;99.10
16182;DHT22;8197;51.664;7.114;2024-03-17T00:30:24;6.20;99.90
16182;DHT22;8197;51.664;7.114;2024-03-17T00:35:26;6.10;100.00
16182;DHT22;8197;51.664;7.114;2024-03-17T00:40:28;6.00;99.30
16182;DHT22;8197;51.664;7.114;2024-03-17T00:45:31;6.00;100.00
16182;DHT22;8197;51.664;7.114;2024-03-17T00:50:33;5.90;100.00
16182;DHT22;8197;51.664;7.114;2024-03-17T00:55:35;5.90;99.90
16182;DHT22;8197;51.664;7.114;2024-03-17T01:00:39;5.90;99.60
16182;DHT22;8197;51.664;7.114;2024-03-17T01:05:41;5.80;100.00
16182;DHT22;8197;51.664;7.114;2024-03-17T01:10:46;5.80;100.00
16182;DHT22;8197;51.664;7.114;2024-03-17T01:15:52;5.70;100.00
16182;DHT22;8197;51.664;7.114;2024-03-17T01:20:54;5.60;100.00
16182;DHT22;8197;51.664;7.114;2024-03-17T01:25:57;5.50;100.00
16182;DHT22;8197;51.664;7.114;2024-03-17T01:31:00;5.40;100.00
16182;DHT22;8197;51.664;7.114;2024-03-17T01:36:02;5.40;100.00
16182;DHT22;8197;51.664;7.114;2024-03-17T01:41:04;5.40;100.00
16182;DHT22;8197;51.664;7.114;2024-03-17T01:46:11;5.30;100.00
16182;DHT22;8197;51.664;7.114;2024-03-17T01:51:15;5.30;100.00
16182;DHT22;8197;51.664;7.114;2024-03-17T01:56:17;5.30;100.00
16182;DHT22;8197;51.664;7.114;2024-03-17T02:01:22;5.30;100.00
16182;DHT22;8197;51.664;7.114;2024-03-17T02:06:24;5.30;100.00
16182;DHT22;8197;51.664;7.114;2024-03-17T02:11:28;5.20;100.00
16182;DHT22;8197;51.664;7.114;2024-03-17T02:16:32;5.10;100.00
16182;DHT22;8197;51.664;7.114;2024-03-17T02:21:34;5.10;100.00
16182;DHT22;8197;51.664;7.114;2024-03-17T02:26:39;5.00;100.00
16182;DHT22;8197;51.664;7.114;2024-03-17T02:31:41;4.90;100.00
16182;DHT22;8197;51.664;7.114;2024-03-17T02:36:43;4.90;100.00
16182;DHT22;8197;51.664;7.114;2024-03-17T02:41:47;4.90;100.00
16182;DHT22;8197;51.664;7.114;2024-03-17T02:46:49;4.70;100.00
16182;DHT22;8197;51.664;7.114;2024-03-17T02:51:51;4.80;100.00
16182;DHT22;8197;51.664;7.114;2024-03-17T02:56:54;4.70;100.00
16182;DHT22;8197;51.664;7.114;2024-03-17T03:01:57;4.80;100.00
16182;DHT22;8197;51.664;7.114;2024-03-17T03:07:00;4.70;100.00
16182;DHT22;8197;51.664;7.114;2024-03-17T03:12:03;4.70;100.00
16182;DHT22;8197;51.664;7.114;2024-03-17T03:17:06;4.70;100.00
16182;DHT22;8197;51.664;7.114;2024-03-17T03:22:09;4.70;100.00
16182;DHT22;8197;51.664;7.114;2024-03-17T03:27:12;4.60;100.00
16182;DHT22;8197;51.664;7.114;2024-03-17T03:32:14;4.60;100.00
16182;DHT22;8197;51.664;7.114;2024-03-17T03:37:18;4.60;100.00
16182;DHT22;8197;51.664;7.114;2024-03-17T03:42:22;4.50;100.00
16182;DHT22;8197;51.664;7.114;2024-03-17T03:47:24;4.50;100.00
16182;DHT22;8197;51.664;7.114;2024-03-17T03:52:26;4.40;100.00
16182;DHT22;8197;51.664;7.114;2024-03-17T03:57:29;4.40;100.00
16182;DHT22;8197;51.664;7.114;2024-03-17T04:02:32;4.40;100.00
16182;DHT22;8197;51.664;7.114;2024-03-17T04:07:35;4.40;100.00
16182;DHT22;8197;51.664;7.114;2024-03-17T04:12:38;4.30;100.00
16182;DHT22;8197;51.664;7.114;2024-03-17T04:17:41;4.30;100.00
16182;DHT22;8197;51.664;7.114;2024-03-17T04:22:43;4.20;100.00
16182;DHT22;8197;51.664;7.114;2024-03-17T04:27:47;4.20;100.00
16182;DHT22;8197;51.664;7.114;2024-03-17T04:32:50;4.20;100.00
16182;DHT22;8197;51.664;7.114;2024-03-17T04:37:52;4.10;100.00
16182;DHT22;8197;51.664;7.114;2024-03-17T04:42:56;4.10;100.00
16182;DHT22;8197;51.664;7.114;2024-03-17T04:47:58;4.20;100.00
16182;DHT22;8197;51.664;7.114;2024-03-17T04:53:00;4.10;100.00
16182;DHT22;8197;51.664;7.114;2024-03-17T04:58:06;4.10;100.00
16182;DHT22;8197;51.664;7.114;2024-03-17T05:03:08;4.10;100.00
16182;DHT22;8197;51.664;7.114;2024-03-17T05:08:10;4.20;100.00
16182;DHT22;8197;51.664;7.114;2024-03-17T05:13:13;4.10;100.00
16182;DHT22;8197;51.664;7.114;2024-03-17T05:18:15;4.00;100.00
16182;DHT22;8197;51.664;7.114;2024-03-17T05:23:17;4.00;100.00
16182;DHT22;8197;51.664;7.114;2024-03-17T05:28:21;4.10;100.00
16182;DHT22;8197;51.664;7.114;2024-03-17T05:33:26;4.00;100.00
16182;DHT22;8197;51.664;7.114;2024-03-17T05:38:29;4.00;100.00
16182;DHT22;8197;51.664;7.114;2024-03-17T05:43:34;4.00;100.00
16182;DHT22;8197;51.664;7.114;2024-03-17T05:48:38;4.00;100.00
16182;DHT22;8197;51.664;7.114;2024-03-17T05:53:40;4.00;100.00
16182;DHT22;8197;51.664;7.114;2024-03-17T05:58:46;4.00;100.00
16182;DHT22;8197;51.664;7.114;2024-03-17T06:03:49;4.00;100.00
16182;DHT22;8197;51.664;7.114;2024-03-17T06:08:53;4.00;100.00
16182;DHT22;8197;51.664;7.114;2024-03-17T06:13:56;4.00;100.00
16182;DHT22;8197;51.664;7.114;2024-03-17T06:19:01;4.10;100.00
16182;DHT22;8197;51.664;7.114;2024-03-17T06:24:04;4.20;100.00
16182;DHT22;8197;51.664;7.114;2024-03-17T06:29:08;4.30;100.00
16182;DHT22;8197;51.664;7.114;2024-03-17T06:34:10;4.50;100.00
16182;DHT22;8197;51.664;7.114;2024-03-17T06:39:12;4.70;100.00
16182;DHT22;8197;51.664;7.114;2024-03-17T06:44:18;4.90;100.00
16182;DHT22;8197;51.664;7.114;2024-03-17T06:49:20;5.10;100.00
16182;DHT22;8197;51.664;7.114;2024-03-17T06:54:22;5.20;100.00
16182;DHT22;8197;51.664;7.114;2024-03-17T06:59:26;5.40;100.00
16182;DHT22;8197;51.664;7.114;2024-03-17T07:04:28;5.50;100.00
16182;DHT22;8197;51.664;7.114;2024-03-17T07:09:30;5.60;100.00
16182;DHT22;8197;51.664;7.114;2024-03-17T07:14:34;5.70;100.00
16182;DHT22;8197;51.664;7.114;2024-03-17T07:19:36;5.80;100.00
16182;DHT22;8197;51.664;7.114;2024-03-17T07:24:38;6.00;100.00
16182;DHT22;8197;51.664;7.114;2024-03-17T07:29:42;6.10;100.00
16182;DHT22;8197;51.664;7.114;2024-03-17T07:34:44;6.30;100.00
16182;DHT22;8197;51.664;7.114;2024-03-17T07:39:46;6.50;100.00
16182;DHT22;8197;51.664;7.114;2024-03-17T07:44:54;6.70;100.00
16182;DHT22;8197;51.664;7.114;2024-03-17T07:49:56;6.90;100.00
16182;DHT22;8197;51.664;7.114;2024-03-17T07:55:00;7.10;100.00
16182;DHT22;8197;51.664;7.114;2024-03-17T08:00:05;7.20;100.00
16182;DHT22;8197;51.664;7.114;2024-03-17T08:05:16;7.40;100.00
16182;DHT22;8197;51.664;7.114;2024-03-17T08:10:18;7.50;100.00
16182;DHT22;8197;51.664;7.114;2024-03-17T08:15:24;7.70;99.60
16182;DHT22;8197;51.664;7.114;2024-03-17T08:20:26;7.80;97.00
16182;DHT22;8197;51.664;7.114;2024-03-17T08:25:28;7.90;96.30
16182;DHT22;8197;51.664;7.114;2024-03-17T08:30:32;8.10;95.20
16182;DHT22;8197;51.664;7.114;2024-03-17T08:35:34;8.30;93.10
16182;DHT22;8197;51.664;7.114;2024-03-17T08:40:38;8.40;94.00
16182;DHT22;8197;51.664;7.114;2024-03-17T08:45:43;8.50;92.10
16182;DHT22;8197;51.664;7.114;2024-03-17T08:50:50;8.60;90.90
16182;DHT22;8197;51.664;7.114;2024-03-17T08:55:52;8.70;90.60
16182;DHT22;8197;51.664;7.114;2024-03-17T09:00:56;9.00;89.90
16182;DHT22;8197;51.664;7.114;2024-03-17T09:05:58;9.40;88.20
16182;DHT22;8197;51.664;7.114;2024-03-17T09:11:01;9.70;87.00
16182;DHT22;8197;51.664;7.114;2024-03-17T09:16:05;9.80;84.60
16182;DHT22;8197;51.664;7.114;2024-03-17T09:21:08;10.10;82.70
16182;DHT22;8197;51.664;7.114;2024-03-17T09:26:11;10.30;82.20
16182;DHT22;8197;51.664;7.114;2024-03-17T09:31:16;10.30;80.60
16182;DHT22;8197;51.664;7.114;2024-03-17T09:36:18;10.40;80.60
16182;DHT22;8197;51.664;7.114;2024-03-17T09:41:21;10.50;79.50
16182;DHT22;8197;51.664;7.114;2024-03-17T09:46:30;10.80;78.70
16182;DHT22;8197;51.664;7.114;2024-03-17T09:51:32;11.10;77.50
16182;DHT22;8197;51.664;7.114;2024-03-17T09:56:36;11.20;76.10
16182;DHT22;8197;51.664;7.114;2024-03-17T10:01:40;11.50;74.90
16182;DHT22;8197;51.664;7.114;2024-03-17T10:06:45;11.50;73.50
16182;DHT22;8197;51.664;7.114;2024-03-17T10:11:48;11.50;72.90
16182;DHT22;8197;51.664;7.114;2024-03-17T10:16:52;11.60;73.50
16182;DHT22;8197;51.664;7.114;2024-03-17T10:21:59;11.70;73.80
16182;DHT22;8197;51.664;7.114;2024-03-17T10:27:02;11.80;71.40
16182;DHT22;8197;51.664;7.114;2024-03-17T10:32:13;12.00;72.00
16182;DHT22;8197;51.664;7.114;2024-03-17T10:37:16;12.10;70.90
16182;DHT22;8197;51.664;7.114;2024-03-17T10:42:25;12.20;69.70
16182;DHT22;8197;51.664;7.114;2024-03-17T10:47:31;12.30;70.60
16182;DHT22;8197;51.664;7.114;2024-03-17T10:52:34;12.20;70.50
16182;DHT22;8197;51.664;7.114;2024-03-17T10:57:45;12.30;70.70
16182;DHT22;8197;51.664;7.114;2024-03-17T11:02:52;12.40;69.50
16182;DHT22;8197;51.664;7.114;2024-03-17T11:07:57;12.50;69.30
16182;DHT22;8197;51.664;7.114;2024-03-17T11:13:02;12.50;68.50
16182;DHT22;8197;51.664;7.114;2024-03-17T11:18:31;12.60;68.00
16182;DHT22;8197;51.664;7.114;2024-03-17T11:23:35;12.80;67.90
16182;DHT22;8197;51.664;7.114;2024-03-17T11:28:47;13.00;66.70
16182;DHT22;8197;51.664;7.114;2024-03-17T11:33:50;13.10;65.80
16182;DHT22;8197;51.664;7.114;2024-03-17T11:38:53;13.10;65.30
16182;DHT22;8197;51.664;7.114;2024-03-17T11:44:13;13.10;62.80
16182;DHT22;8197;51.664;7.114;2024-03-17T11:49:20;13.10;64.60
16182;DHT22;8197;51.664;7.114;2024-03-17T11:54:33;13.00;63.60
16182;DHT22;8197;51.664;7.114;2024-03-17T11:59:36;13.00;63.20
16182;DHT22;8197;51.664;7.114;2024-03-17T12:04:40;13.10;65.00
16182;DHT22;8197;51.664;7.114;2024-03-17T12:09:44;13.10;64.20
16182;DHT22;8197;51.664;7.114;2024-03-17T12:14:48;13.30;64.10
16182;DHT22;8197;51.664;7.114;2024-03-17T12:19:52;13.20;62.80
16182;DHT22;8197;51.664;7.114;2024-03-17T12:24:56;13.40;65.00
16182;DHT22;8197;51.664;7.114;2024-03-17T12:30:00;13.40;62.70
16182;DHT22;8197;51.664;7.114;2024-03-17T12:35:12;13.60;63.90
16182;DHT22;8197;51.664;7.114;2024-03-17T12:40:20;13.60;60.20
16182;DHT22;8197;51.664;7.114;2024-03-17T12:45:23;13.70;61.60
16182;DHT22;8197;51.664;7.114;2024-03-17T12:50:27;13.80;60.00
16182;DHT22;8197;51.664;7.114;2024-03-17T12:55:29;13.90;61.00
16182;DHT22;8197;51.664;7.114;2024-03-17T13:00:57;14.00;61.60
16182;DHT22;8197;51.664;7.114;2024-03-17T13:06:09;14.00;60.00
16182;DHT22;8197;51.664;7.114;2024-03-17T13:11:13;14.00;60.20
16182;DHT22;8197;51.664;7.114;2024-03-17T13:16:15;14.00;59.30
16182;DHT22;8197;51.664;7.114;2024-03-17T13:21:19;14.10;59.10
16182;DHT22;8197;51.664;7.114;2024-03-17T13:26:22;14.20;59.60
16182;DHT22;8197;51.664;7.114;2024-03-17T13:31:24;14.20;57.60
16182;DHT22;8197;51.664;7.114;2024-03-17T13:36:28;14.30;58.20
16182;DHT22;8197;51.664;7.114;2024-03-17T13:41:30;14.40;58.10
16182;DHT22;8197;51.664;7.114;2024-03-17T13:46:33;14.50;59.20
16182;DHT22;8197;51.664;7.114;2024-03-17T13:51:37;14.50;60.30
16182;DHT22;8197;51.664;7.114;2024-03-17T13:56:39;14.40;58.10
16182;DHT22;8197;51.664;7.114;2024-03-17T14:01:45;14.40;59.10
16182;DHT22;8197;51.664;7.114;2024-03-17T14:06:49;14.30;60.60
16182;DHT22;8197;51.664;7.114;2024-03-17T14:11:51;14.30;60.80
16182;DHT22;8197;51.664;7.114;2024-03-17T14:16:54;14.30;59.80
16182;DHT22;8197;51.664;7.114;2024-03-17T14:21:57;14.20;59.40
16182;DHT22;8197;51.664;7.114;2024-03-17T14:27:00;14.20;60.30
16182;DHT22;8197;51.664;7.114;2024-03-17T14:32:02;14.20;60.60
16182;DHT22;8197;51.664;7.114;2024-03-17T14:37:06;14.20;61.30
16182;DHT22;8197;51.664;7.114;2024-03-17T14:42:08;14.20;59.90
16182;DHT22;8197;51.664;7.114;2024-03-17T14:47:11;14.20;60.40
16182;DHT22;8197;51.664;7.114;2024-03-17T14:57:46;14.20;59.90
16182;DHT22;8197;51.664;7.114;2024-03-17T15:02:51;14.10;60.20
16182;DHT22;8197;51.664;7.114;2024-03-17T15:07:53;14.20;59.60
16182;DHT22;8197;51.664;7.114;2024-03-17T15:12:57;14.20;60.70
16182;DHT22;8197;51.664;7.114;2024-03-17T15:17:59;14.10;59.20
16182;DHT22;8197;51.664;7.114;2024-03-17T15:23:01;14.10;59.00
16182;DHT22;8197;51.664;7.114;2024-03-17T15:28:06;14.10;59.30
16182;DHT22;8197;51.664;7.114;2024-03-17T15:33:08;14.00;59.80
16182;DHT22;8197;51.664;7.114;2024-03-17T15:38:11;14.00;60.90
16182;DHT22;8197;51.664;7.114;2024-03-17T15:43:14;14.00;59.30
16182;DHT22;8197;51.664;7.114;2024-03-17T15:48:18;14.00;60.50
16182;DHT22;8197;51.664;7.114;2024-03-17T15:53:21;14.00;60.40
16182;DHT22;8197;51.664;7.114;2024-03-17T15:58:25;13.90;60.30
16182;DHT22;8197;51.664;7.114;2024-03-17T16:03:30;13.90;61.10
16182;DHT22;8197;51.664;7.114;2024-03-17T16:08:32;13.80;59.80
16182;DHT22;8197;51.664;7.114;2024-03-17T16:13:39;13.90;60.80
16182;DHT22;8197;51.664;7.114;2024-03-17T16:18:41;13.90;59.90
16182;DHT22;8197;51.664;7.114;2024-03-17T16:23:48;13.90;60.40
16182;DHT22;8197;51.664;7.114;2024-03-17T16:28:53;13.90;61.20
16182;DHT22;8197;51.664;7.114;2024-03-17T16:34:11;14.00;61.40
16182;DHT22;8197;51.664;7.114;2024-03-17T16:39:14;13.90;61.90
16182;DHT22;8197;51.664;7.114;2024-03-17T16:44:23;13.80;62.50
16182;DHT22;8197;51.664;7.114;2024-03-17T16:49:28;13.80;63.60
16182;DHT22;8197;51.664;7.114;2024-03-17T16:54:34;13.70;63.50
16182;DHT22;8197;51.664;7.114;2024-03-17T16:59:39;13.70;63.70
16182;DHT22;8197;51.664;7.114;2024-03-17T17:04:43;13.60;64.40
16182;DHT22;8197;51.664;7.114;2024-03-17T17:09:45;13.60;64.70
16182;DHT22;8197;51.664;7.114;2024-03-17T17:14:49;13.50;64.50
16182;DHT22;8197;51.664;7.114;2024-03-17T17:19:54;13.40;65.70
16182;DHT22;8197;51.664;7.114;2024-03-17T17:24:56;13.40;66.40
16182;DHT22;8197;51.664;7.114;2024-03-17T17:30:00;13.40;65.10
16182;DHT22;8197;51.664;7.114;2024-03-17T17:35:03;13.40;67.30
16182;DHT22;8197;51.664;7.114;2024-03-17T17:40:07;13.20;68.40
16182;DHT22;8197;51.664;7.114;2024-03-17T17:45:11;13.10;68.00
16182;DHT22;8197;51.664;7.114;2024-03-17T17:50:14;13.00;69.10
16182;DHT22;8197;51.664;7.114;2024-03-17T17:55:16;13.00;70.20
16182;DHT22;8197;51.664;7.114;2024-03-17T18:00:20;13.00;70.90
16182;DHT22;8197;51.664;7.114;2024-03-17T18:05:22;13.00;71.60
16182;DHT22;8197;51.664;7.114;2024-03-17T18:10:25;12.90;71.70
16182;DHT22;8197;51.664;7.114;2024-03-17T18:15:30;12.80;72.50
16182;DHT22;8197;51.664;7.114;2024-03-17T18:20:32;12.70;72.60
16182;DHT22;8197;51.664;7.114;2024-03-17T18:25:35;12.70;73.60
16182;DHT22;8197;51.664;7.114;2024-03-17T18:30:38;12.70;74.60
16182;DHT22;8197;51.664;7.114;2024-03-17T18:35:47;12.70;73.80
16182;DHT22;8197;51.664;7.114;2024-03-17T18:40:58;12.70;74.20
16182;DHT22;8197;51.664;7.114;2024-03-17T18:46:08;12.60;74.20
16182;DHT22;8197;51.664;7.114;2024-03-17T18:51:10;12.60;74.60
16182;DHT22;8197;51.664;7.114;2024-03-17T18:56:13;12.60;74.80
16182;DHT22;8197;51.664;7.114;2024-03-17T19:01:16;12.60;75.20
16182;DHT22;8197;51.664;7.114;2024-03-17T19:06:18;12.50;75.50
16182;DHT22;8197;51.664;7.114;2024-03-17T19:11:22;12.40;75.10
16182;DHT22;8197;51.664;7.114;2024-03-17T19:16:25;12.40;75.90
16182;DHT22;8197;51.664;7.114;2024-03-17T19:21:27;12.40;76.50
16182;DHT22;8197;51.664;7.114;2024-03-17T19:26:32;12.30;76.70
16182;DHT22;8197;51.664;7.114;2024-03-17T19:31:36;12.30;77.40
16182;DHT22;8197;51.664;7.114;2024-03-17T19:36:38;12.30;77.50
16182;DHT22;8197;51.664;7.114;2024-03-17T19:41:40;12.20;76.70
16182;DHT22;8197;51.664;7.114;2024-03-17T19:46:44;12.10;77.40
16182;DHT22;8197;51.664;7.114;2024-03-17T19:51:46;12.10;77.50
16182;DHT22;8197;51.664;7.114;2024-03-17T19:56:48;12.10;77.60
16182;DHT22;8197;51.664;7.114;2024-03-17T20:01:52;12.10;77.10
16182;DHT22;8197;51.664;7.114;2024-03-17T20:06:54;12.00;76.60
16182;DHT22;8197;51.664;7.114;2024-03-17T20:11:59;12.00;76.90
16182;DHT22;8197;51.664;7.114;2024-03-17T20:17:02;12.00;76.60
16182;DHT22;8197;51.664;7.114;2024-03-17T20:22:08;12.00;76.30
16182;DHT22;8197;51.664;7.114;2024-03-17T20:27:10;12.00;77.30
16182;DHT22;8197;51.664;7.114;2024-03-17T20:32:16;12.00;77.00
16182;DHT22;8197;51.664;7.114;2024-03-17T20:37:18;11.90;76.20
16182;DHT22;8197;51.664;7.114;2024-03-17T20:42:23;12.00;76.50
16182;DHT22;8197;51.664;7.114;2024-03-17T20:47:27;11.90;76.60
16182;DHT22;8197;51.664;7.114;2024-03-17T20:52:29;11.90;76.00
16182;DHT22;8197;51.664;7.114;2024-03-17T20:57:33;11.90;76.10
16182;DHT22;8197;51.664;7.114;2024-03-17T21:02:37;11.90;76.70
16182;DHT22;8197;51.664;7.114;2024-03-17T21:07:39;11.90;76.60
16182;DHT22;8197;51.664;7.114;2024-03-17T21:12:42;11.90;76.60
16182;DHT22;8197;51.664;7.114;2024-03-17T21:17:46;11.80;76.40
16182;DHT22;8197;51.664;7.114;2024-03-17T21:22:48;11.80;77.40
16182;DHT22;8197;51.664;7.114;2024-03-17T21:27:50;11.70;77.60
16182;DHT22;8197;51.664;7.114;2024-03-17T21:32:55;11.70;77.90
16182;DHT22;8197;51.664;7.114;2024-03-17T21:37:57;11.70;77.80
16182;DHT22;8197;51.664;7.114;2024-03-17T21:42:59;11.70;77.40
16182;DHT22;8197;51.664;7.114;2024-03-17T21:48:02;11.80;78.30
16182;DHT22;8197;51.664;7.114;2024-03-17T21:53:04;11.80;78.20
16182;DHT22;8197;51.664;7.114;2024-03-17T21:58:06;11.70;77.90
16182;DHT22;8197;51.664;7.114;2024-03-17T22:03:10;11.60;80.80
16182;DHT22;8197;51.664;7.114;2024-03-17T22:08:12;11.50;85.60
16182;DHT22;8197;51.664;7.114;2024-03-17T22:13:14;11.30;87.30
16182;DHT22;8197;51.664;7.114;2024-03-17T22:18:18;11.20;89.30
16182;DHT22;8197;51.664;7.114;2024-03-17T22:23:20;11.20;91.20
16182;DHT22;8197;51.664;7.114;2024-03-17T22:28:22;11.10;93.40
16182;DHT22;8197;51.664;7.114;2024-03-17T22:33:27;11.10;96.00
16182;DHT22;8197;51.664;7.114;2024-03-17T22:38:29;11.10;97.30
16182;DHT22;8197;51.664;7.114;2024-03-17T22:43:32;10.70;98.00
16182;DHT22;8197;51.664;7.114;2024-03-17T22:48:36;10.70;97.40
16182;DHT22;8197;51.664;7.114;2024-03-17T22:53:40;10.70;100.00
16182;DHT22;8197;51.664;7.114;2024-03-17T22:58:43;10.80;100.00
16182;DHT22;8197;51.664;7.114;2024-03-17T23:03:48;10.80;100.00
16182;DHT22;8197;51.664;7.114;2024-03-17T23:08:50;10.80;100.00
16182;DHT22;8197;51.664;7.114;2024-03-17T23:13:52;10.90;100.00
16182;DHT22;8197;51.664;7.114;2024-03-17T23:18:56;10.90;100.00
16182;DHT22;8197;51.664;7.114;2024-03-17T23:23:57;10.80;100.00
16182;DHT22;8197;51.664;7.114;2024-03-17T23:29:00;10.80;100.00
16182;DHT22;8197;51.664;7.114;2024-03-17T23:34:03;10.90;100.00
16182;DHT22;8197;51.664;7.114;2024-03-17T23:39:05;10.90;100.00
16182;DHT22;8197;51.664;7.114;2024-03-17T23:44:09;11.00;100.00
16182;DHT22;8197;51.664;7.114;2024-03-17T23:49:12;11.00;100.00
16182;DHT22;8197;51.664;7.114;2024-03-17T23:54:14;10.90;100.00
16182;DHT22;8197;51.664;7.114;2024-03-17T23:59:16;10.90;100.00
